Virginia — WCW4062 — position and weather

sailwx.info

Track history (hours):
 
Tides and Currents Weather Stations Pressure Air Temp Water Temp Dewpoint Dewpoint Depression Visibility Wind Speed Wind Dir Waves Ship Positions

Virginia

Owner: WEEKS MARINE, INC., CRANFORD, NJ. More information available from US FCC via Universal Licensing System and Coast Guard Vessel Documentation Center.

Last reported at 2017-Apr-15 16:13 UTC. Time now 2017-Apr-24 15:27 UTC.
Position N 29°35' W 090°37'.
Warning: this ship's position is 8 days out of date.

; draft 2.5 m.

Type: Towing. MMSI: 366939110.

Date/timePositionNaut miles runAvg speedWind from/ knotsBaromVisibWave heightAir tempDewpointWater temp
2017-Apr-15 16:13N 29°35' W 090°37'0 0.0
2017-Apr-15 16:00N 29°35' W 090°37'0 0.0
2017-Apr-15 15:31N 29°35' W 090°37'0 0.0
2017-Apr-15 15:00N 29°35' W 090°37'0 0.5
2017-Apr-15 14:31N 29°35' W 090°36'0 0.4
2017-Apr-15 13:30N 29°35' W 090°37'0 0.7
2017-Apr-15 13:01N 29°35' W 090°36'1 1.1
2017-Apr-15 12:31N 29°35' W 090°37'0 0.0
2017-Apr-15 12:01N 29°35' W 090°37'0 0.1
2017-Apr-15 11:26N 29°35' W 090°37'0 0.0
2017-Apr-15 10:59N 29°35' W 090°37'0 0.0
2017-Apr-15 10:30N 29°35' W 090°37'0 0.0
2017-Apr-14 23:32N 29°35' W 090°37'0 0.0
2017-Apr-14 23:30N 29°35' W 090°37'0 0.0
2017-Apr-14 23:00N 29°35' W 090°37'8 1.7
2017-Apr-14 18:32N 29°33' W 090°45'0 3.4
2017-Apr-14 18:31N 29°33' W 090°46'2 4.3
2017-Apr-14 18:01N 29°32' W 090°48'6 4.7
2017-Apr-14 16:46N 29°33' W 090°55'55 3.3
2017-Apr-14 00:18N 29°51' W 091°54'1 4.1
2017-Apr-14 00:00N 29°51' W 091°56'2 4.2
2017-Apr-13 23:30N 29°50' W 091°58'2 4.2
2017-Apr-13 23:01N 29°50' W 092°00'2 4.0
2017-Apr-13 22:31N 29°49' W 092°02'2 4.1
2017-Apr-13 22:01N 29°48' W 092°05'2 4.0
2017-Apr-13 21:31N 29°48' W 092°07'2 3.9
2017-Apr-13 21:01N 29°47' W 092°09'2 4.0
2017-Apr-13 20:31N 29°47' W 092°11'0 0.1
2017-Apr-13 20:01N 29°47' W 092°11'0 0.5
2017-Apr-13 19:31N 29°47' W 092°12'0 0.0
2017-Apr-13 19:01N 29°47' W 092°12'0 0.1
2017-Apr-13 18:31N 29°47' W 092°12'1 1.9
2017-Apr-13 18:01N 29°47' W 092°13'1 1.5
2017-Apr-13 17:31N 29°48' W 092°13'1 2.1
2017-Apr-13 17:00N 29°48' W 092°15'1 1.7
2017-Apr-13 16:31N 29°48' W 092°15'1 3.0
2017-Apr-13 16:01N 29°49' W 092°17'2 3.9
2017-Apr-13 15:30N 29°50' W 092°19'2 3.9
2017-Apr-13 15:01N 29°51' W 092°21'4 3.7
2017-Apr-13 14:01N 29°53' W 092°24'2 3.9
2017-Apr-13 13:31N 29°53' W 092°26'2 3.9
2017-Apr-13 13:01N 29°54' W 092°29'2 3.1
2017-Apr-13 12:31N 29°54' W 092°30'27 3.7
2017-Apr-13 05:08N 29°56' W 093°02'1 4.0
2017-Apr-13 04:49N 29°56' W 093°03'1 4.0
2017-Apr-13 04:30N 29°56' W 093°05'2 4.2
2017-Apr-13 04:01N 29°56' W 093°07'2 4.4
2017-Apr-13 03:31N 29°56' W 093°09'2 4.3
2017-Apr-13 03:01N 29°58' W 093°11'2 4.2
2017-Apr-13 02:31N 29°59' W 093°13'2 3.9
2017-Apr-13 02:01N 30°01' W 093°14'2 3.8
2017-Apr-13 01:31N 30°02' W 093°15'2 3.9
2017-Apr-13 01:01N 30°04' W 093°16'2 3.3
2017-Apr-13 00:31N 30°05' W 093°18'1 1.6
2017-Apr-13 00:01N 30°06' W 093°18'0 0.8
2017-Apr-12 23:31N 30°06' W 093°18'1 2.8
2017-Apr-12 23:01N 30°05' W 093°20'2 4.1
2017-Apr-12 22:30N 30°04' W 093°21'1 3.0
2017-Apr-12 22:01N 30°04' W 093°23'2 4.0
2017-Apr-12 21:31N 30°04' W 093°25'2 3.9
2017-Apr-12 21:01N 30°04' W 093°27'2 3.9
2017-Apr-12 20:31N 30°04' W 093°30'2 4.0
2017-Apr-12 20:01N 30°04' W 093°32'2 3.9
2017-Apr-12 19:29N 30°04' W 093°34'2 3.9
2017-Apr-12 19:00N 30°03' W 093°37'  
Track history (hours):
 
Tides and Currents Weather Stations Pressure Air Temp Water Temp Dewpoint Dewpoint Depression Visibility Wind Speed Wind Dir Waves Ship Positions

Virginia

Owner: WEEKS MARINE, INC., CRANFORD, NJ. More information available from US FCC via Universal Licensing System and Coast Guard Vessel Documentation Center.

Last reported at 2017-Apr-15 16:13 UTC. Time now 2017-Apr-24 15:27 UTC.
Position N 29°35' W 090°37'.
Warning: this ship's position is 8 days out of date.

; draft 2.5 m.

Type: Towing. MMSI: 366939110.

Date/timePositionNaut miles runAvg speedWind from/ knotsBaromVisibWave heightAir tempDewpointWater temp
2017-Apr-15 16:13N 29°35' W 090°37'0 0.0
2017-Apr-15 16:00N 29°35' W 090°37'0 0.0
2017-Apr-15 15:31N 29°35' W 090°37'0 0.0
2017-Apr-15 15:00N 29°35' W 090°37'0 0.5
2017-Apr-15 14:31N 29°35' W 090°36'0 0.4
2017-Apr-15 13:30N 29°35' W 090°37'0 0.7
2017-Apr-15 13:01N 29°35' W 090°36'1 1.1
2017-Apr-15 12:31N 29°35' W 090°37'0 0.0
2017-Apr-15 12:01N 29°35' W 090°37'0 0.1
2017-Apr-15 11:26N 29°35' W 090°37'0 0.0
2017-Apr-15 10:59N 29°35' W 090°37'0 0.0
2017-Apr-15 10:30N 29°35' W 090°37'0 0.0
2017-Apr-14 23:32N 29°35' W 090°37'0 0.0
2017-Apr-14 23:30N 29°35' W 090°37'0 0.0
2017-Apr-14 23:00N 29°35' W 090°37'8 1.7
2017-Apr-14 18:32N 29°33' W 090°45'0 3.4
2017-Apr-14 18:31N 29°33' W 090°46'2 4.3
2017-Apr-14 18:01N 29°32' W 090°48'6 4.7
2017-Apr-14 16:46N 29°33' W 090°55'55 3.3
2017-Apr-14 00:18N 29°51' W 091°54'1 4.1
2017-Apr-14 00:00N 29°51' W 091°56'2 4.2
2017-Apr-13 23:30N 29°50' W 091°58'2 4.2
2017-Apr-13 23:01N 29°50' W 092°00'2 4.0
2017-Apr-13 22:31N 29°49' W 092°02'2 4.1
2017-Apr-13 22:01N 29°48' W 092°05'2 4.0
2017-Apr-13 21:31N 29°48' W 092°07'2 3.9
2017-Apr-13 21:01N 29°47' W 092°09'2 4.0
2017-Apr-13 20:31N 29°47' W 092°11'0 0.1
2017-Apr-13 20:01N 29°47' W 092°11'0 0.5
2017-Apr-13 19:31N 29°47' W 092°12'0 0.0
2017-Apr-13 19:01N 29°47' W 092°12'0 0.1
2017-Apr-13 18:31N 29°47' W 092°12'1 1.9
2017-Apr-13 18:01N 29°47' W 092°13'1 1.5
2017-Apr-13 17:31N 29°48' W 092°13'1 2.1
2017-Apr-13 17:00N 29°48' W 092°15'1 1.7
2017-Apr-13 16:31N 29°48' W 092°15'1 3.0
2017-Apr-13 16:01N 29°49' W 092°17'2 3.9
2017-Apr-13 15:30N 29°50' W 092°19'2 3.9
2017-Apr-13 15:01N 29°51' W 092°21'4 3.7
2017-Apr-13 14:01N 29°53' W 092°24'2 3.9
2017-Apr-13 13:31N 29°53' W 092°26'2 3.9
2017-Apr-13 13:01N 29°54' W 092°29'2 3.1
2017-Apr-13 12:31N 29°54' W 092°30'27 3.7
2017-Apr-13 05:08N 29°56' W 093°02'1 4.0
2017-Apr-13 04:49N 29°56' W 093°03'1 4.0
2017-Apr-13 04:30N 29°56' W 093°05'2 4.2
2017-Apr-13 04:01N 29°56' W 093°07'2 4.4
2017-Apr-13 03:31N 29°56' W 093°09'2 4.3
2017-Apr-13 03:01N 29°58' W 093°11'2 4.2
2017-Apr-13 02:31N 29°59' W 093°13'2 3.9
2017-Apr-13 02:01N 30°01' W 093°14'2 3.8
2017-Apr-13 01:31N 30°02' W 093°15'2 3.9
2017-Apr-13 01:01N 30°04' W 093°16'2 3.3
2017-Apr-13 00:31N 30°05' W 093°18'1 1.6
2017-Apr-13 00:01N 30°06' W 093°18'0 0.8
2017-Apr-12 23:31N 30°06' W 093°18'1 2.8
2017-Apr-12 23:01N 30°05' W 093°20'2 4.1
2017-Apr-12 22:30N 30°04' W 093°21'1 3.0
2017-Apr-12 22:01N 30°04' W 093°23'2 4.0
2017-Apr-12 21:31N 30°04' W 093°25'2 3.9
2017-Apr-12 21:01N 30°04' W 093°27'2 3.9
2017-Apr-12 20:31N 30°04' W 093°30'2 4.0
2017-Apr-12 20:01N 30°04' W 093°32'2 3.9
2017-Apr-12 19:29N 30°04' W 093°34'2 3.9
2017-Apr-12 19:00N 30°03' W 093°37'  

Dump ship's entire track history